sensor_id;sensor_type;location;lat;lon;timestamp;P1;P2;P0
53698;PMS7003;68408;53.952;27.612;2023-12-29T00:01:39;29.2;23.3;16.8
53698;PMS7003;68408;53.952;27.612;2023-12-29T00:06:31;28.5;24;15.9
53698;PMS7003;68408;53.952;27.612;2023-12-29T00:11:29;28.6;20.3;13.2
53698;PMS7003;68408;53.952;27.612;2023-12-29T00:16:49;25.1;20.3;12.8
53698;PMS7003;68408;53.952;27.612;2023-12-29T00:22:09;28.8;23.2;15.5
53698;PMS7003;68408;53.952;27.612;2023-12-29T00:26:45;27.1;21.8;14.4
53698;PMS7003;68408;53.952;27.612;2023-12-29T00:31:41;30.6;23.7;15.7
53698;PMS7003;68408;53.952;27.612;2023-12-29T00:36:41;30.2;26;17.6
53698;PMS7003;68408;53.952;27.612;2023-12-29T00:41:29;28.8;24.8;17.5
53698;PMS7003;68408;53.952;27.612;2023-12-29T00:46:55;29.4;23;16.6
53698;PMS7003;68408;53.952;27.612;2023-12-29T00:51:43;28.7;23.5;15.4
53698;PMS7003;68408;53.952;27.612;2023-12-29T00:56:41;32.3;25.4;17.1
53698;PMS7003;68408;53.952;27.612;2023-12-29T01:01:43;25.2;20.2;14.7
53698;PMS7003;68408;53.952;27.612;2023-12-29T01:06:59;28.7;22.8;15.7
53698;PMS7003;68408;53.952;27.612;2023-12-29T01:11:29;27.3;22.3;14.3
53698;PMS7003;68408;53.952;27.612;2023-12-29T01:16:37;32.1;26.2;18
53698;PMS7003;68408;53.952;27.612;2023-12-29T01:21:51;27.9;23.1;17.2
53698;PMS7003;68408;53.952;27.612;2023-12-29T01:27:13;27.9;24.5;16.4
53698;PMS7003;68408;53.952;27.612;2023-12-29T01:32:11;31.2;24.9;18.1
53698;PMS7003;68408;53.952;27.612;2023-12-29T01:37:00;30.4;26.5;18.7
53698;PMS7003;68408;53.952;27.612;2023-12-29T01:42:11;30.9;24;16.9
53698;PMS7003;68408;53.952;27.612;2023-12-29T01:46:30;27;22.2;16.2
53698;PMS7003;68408;53.952;27.612;2023-12-29T01:51:50;31.2;25.5;17.9
53698;PMS7003;68408;53.952;27.612;2023-12-29T01:57:00;29.1;22.8;17
53698;PMS7003;68408;53.952;27.612;2023-12-29T02:01:55;27;22.3;16.9
53698;PMS7003;68408;53.952;27.612;2023-12-29T02:06:55;31.7;25;17.2
53698;PMS7003;68408;53.952;27.612;2023-12-29T02:12:04;27.7;23.2;15.8
53698;PMS7003;68408;53.952;27.612;2023-12-29T02:17:14;30.4;25;17.2
53698;PMS7003;68408;53.952;27.612;2023-12-29T02:21:29;31.8;25.7;18.1
53698;PMS7003;68408;53.952;27.612;2023-12-29T02:26:50;28.7;24.6;17.4
53698;PMS7003;68408;53.952;27.612;2023-12-29T02:31:50;32.2;25.8;17.7
53698;PMS7003;68408;53.952;27.612;2023-12-29T02:37:11;31.4;25.3;17.9
53698;PMS7003;68408;53.952;27.612;2023-12-29T02:41:55;30.8;26.1;17.9
53698;PMS7003;68408;53.952;27.612;2023-12-29T02:46:31;32;25.9;17.8
53698;PMS7003;68408;53.952;27.612;2023-12-29T02:51:49;29.5;23.3;15.3
53698;PMS7003;68408;53.952;27.612;2023-12-29T02:56:35;29.5;23.9;16.2
53698;PMS7003;68408;53.952;27.612;2023-12-29T03:02:13;31.1;25.3;17.7
53698;PMS7003;68408;53.952;27.612;2023-12-29T03:06:44;26.1;21.8;15.5
53698;PMS7003;68408;53.952;27.612;2023-12-29T03:11:37;31.3;26.4;19
53698;PMS7003;68408;53.952;27.612;2023-12-29T03:16:59;31.6;24.6;16.6
53698;PMS7003;68408;53.952;27.612;2023-12-29T03:22:11;28;23.2;15.2
53698;PMS7003;68408;53.952;27.612;2023-12-29T03:26:53;29.3;24.3;18.3
53698;PMS7003;68408;53.952;27.612;2023-12-29T03:31:49;31.1;25;17.7
53698;PMS7003;68408;53.952;27.612;2023-12-29T03:36:37;30.7;25.4;17.2
53698;PMS7003;68408;53.952;27.612;2023-12-29T03:42:11;29.9;24.6;17.8
53698;PMS7003;68408;53.952;27.612;2023-12-29T03:46:38;31.1;26.2;18.9
53698;PMS7003;68408;53.952;27.612;2023-12-29T03:51:49;30.5;24.9;17.9
53698;PMS7003;68408;53.952;27.612;2023-12-29T03:57:13;30.5;24.8;16.2
53698;PMS7003;68408;53.952;27.612;2023-12-29T04:01:32;33.9;26.7;18.7
53698;PMS7003;68408;53.952;27.612;2023-12-29T04:06:47;30.7;25.5;17.4
53698;PMS7003;68408;53.952;27.612;2023-12-29T04:12:11;33;27.2;19.4
53698;PMS7003;68408;53.952;27.612;2023-12-29T04:16:45;30.1;24.6;17.2
53698;PMS7003;68408;53.952;27.612;2023-12-29T04:21:29;27.3;22.4;15.1
53698;PMS7003;68408;53.952;27.612;2023-12-29T04:26:29;29.9;26.1;18.7
53698;PMS7003;68408;53.952;27.612;2023-12-29T04:31:51;32.5;27.2;19.5
53698;PMS7003;68408;53.952;27.612;2023-12-29T04:36:35;29.3;24.9;17.7
53698;PMS7003;68408;53.952;27.612;2023-12-29T04:42:02;33;26.6;17.2
53698;PMS7003;68408;53.952;27.612;2023-12-29T04:47:11;30.9;26.1;18.8
53698;PMS7003;68408;53.952;27.612;2023-12-29T04:51:59;30.9;26.6;18.9
53698;PMS7003;68408;53.952;27.612;2023-12-29T04:56:45;33.4;27.1;18.2
53698;PMS7003;68408;53.952;27.612;2023-12-29T05:01:29;34.9;28.4;19.2
53698;PMS7003;68408;53.952;27.612;2023-12-29T05:06:36;31.7;25.8;17.3
53698;PMS7003;68408;53.952;27.612;2023-12-29T05:11:29;28.1;23;16.4
53698;PMS7003;68408;53.952;27.612;2023-12-29T05:16:35;31.1;26.9;18.9
53698;PMS7003;68408;53.952;27.612;2023-12-29T05:21:43;28.2;23.4;16.1
53698;PMS7003;68408;53.952;27.612;2023-12-29T05:26:57;31.5;26.4;18.2
53698;PMS7003;68408;53.952;27.612;2023-12-29T05:31:59;32.5;25.9;17.8
53698;PMS7003;68408;53.952;27.612;2023-12-29T05:37:11;31.6;26.6;18.8
53698;PMS7003;68408;53.952;27.612;2023-12-29T05:41:49;32.5;26.7;19.2
53698;PMS7003;68408;53.952;27.612;2023-12-29T05:47:02;32.8;26.4;18.6
53698;PMS7003;68408;53.952;27.612;2023-12-29T05:52:12;32.6;28;19.4
53698;PMS7003;68408;53.952;27.612;2023-12-29T05:57:13;33.5;27.6;19.1
53698;PMS7003;68408;53.952;27.612;2023-12-29T06:02:11;35.4;28.9;20.8
53698;PMS7003;68408;53.952;27.612;2023-12-29T06:07:13;30.3;24.3;17.2
53698;PMS7003;68408;53.952;27.612;2023-12-29T06:11:35;34.6;27.9;19.2
53698;PMS7003;68408;53.952;27.612;2023-12-29T06:16:39;32.8;28.1;20.1
53698;PMS7003;68408;53.952;27.612;2023-12-29T06:22:03;35.4;30.5;21.1
53698;PMS7003;68408;53.952;27.612;2023-12-29T06:27:11;33.2;27.5;18.9
53698;PMS7003;68408;53.952;27.612;2023-12-29T06:31:39;35.2;29.3;20.2
53698;PMS7003;68408;53.952;27.612;2023-12-29T06:37:02;34.7;28.1;19.2
53698;PMS7003;68408;53.952;27.612;2023-12-29T06:42:12;38.9;30.8;21.2
53698;PMS7003;68408;53.952;27.612;2023-12-29T06:46:50;37.1;30;20.1
53698;PMS7003;68408;53.952;27.612;2023-12-29T06:51:30;34.9;28.5;19.8
53698;PMS7003;68408;53.952;27.612;2023-12-29T06:56:35;34.9;27.2;18.9
53698;PMS7003;68408;53.952;27.612;2023-12-29T07:02:11;34.3;28.6;20
53698;PMS7003;68408;53.952;27.612;2023-12-29T07:06:37;31.9;26.7;20.1
53698;PMS7003;68408;53.952;27.612;2023-12-29T07:12:04;31.5;26.2;18
53698;PMS7003;68408;53.952;27.612;2023-12-29T07:16:52;33.1;27.4;19.5
53698;PMS7003;68408;53.952;27.612;2023-12-29T07:21:38;34.3;28;19.5
53698;PMS7003;68408;53.952;27.612;2023-12-29T07:26:32;35.3;29.2;20.5
53698;PMS7003;68408;53.952;27.612;2023-12-29T07:32:02;34;27.6;18.7
53698;PMS7003;68408;53.952;27.612;2023-12-29T07:36:52;31.5;26.1;18.7
53698;PMS7003;68408;53.952;27.612;2023-12-29T07:41:31;29.5;23.4;17.9
53698;PMS7003;68408;53.952;27.612;2023-12-29T07:47:10;33.5;27.3;19.4
53698;PMS7003;68408;53.952;27.612;2023-12-29T07:51:38;32.5;26.8;18.2
53698;PMS7003;68408;53.952;27.612;2023-12-29T07:56:42;36.2;29.8;20.7
53698;PMS7003;68408;53.952;27.612;2023-12-29T08:02:00;33.1;27.8;19.3
53698;PMS7003;68408;53.952;27.612;2023-12-29T08:06:42;33.4;25.9;17.9
53698;PMS7003;68408;53.952;27.612;2023-12-29T08:11:50;33.5;26.4;18.3
53698;PMS7003;68408;53.952;27.612;2023-12-29T08:16:30;35.2;28.9;20.2
53698;PMS7003;68408;53.952;27.612;2023-12-29T08:22:12;35.4;28.4;19.4
53698;PMS7003;68408;53.952;27.612;2023-12-29T08:26:30;32.3;26;18.2
53698;PMS7003;68408;53.952;27.612;2023-12-29T08:32:12;33.5;26.4;18.5
53698;PMS7003;68408;53.952;27.612;2023-12-29T08:37:10;32.6;27.2;19.6
53698;PMS7003;68408;53.952;27.612;2023-12-29T08:42:12;35;27.8;18.7
53698;PMS7003;68408;53.952;27.612;2023-12-29T08:46:58;32.4;25.5;17.8
53698;PMS7003;68408;53.952;27.612;2023-12-29T08:51:30;33.2;27.3;19.2
53698;PMS7003;68408;53.952;27.612;2023-12-29T08:56:58;32.1;27.1;18.7
53698;PMS7003;68408;53.952;27.612;2023-12-29T09:01:42;32.9;27.1;19.3
53698;PMS7003;68408;53.952;27.612;2023-12-29T09:06:42;29.2;23.5;15.7
53698;PMS7003;68408;53.952;27.612;2023-12-29T09:12:12;30.1;25.3;18
53698;PMS7003;68408;53.952;27.612;2023-12-29T09:17:00;29;24.5;17.9
53698;PMS7003;68408;53.952;27.612;2023-12-29T09:21:48;35.6;28.1;19.9
53698;PMS7003;68408;53.952;27.612;2023-12-29T09:26:30;32.3;27;19.1
53698;PMS7003;68408;53.952;27.612;2023-12-29T09:31:58;29.4;24.8;17
53698;PMS7003;68408;53.952;27.612;2023-12-29T09:36:36;28.4;23.9;16.8
53698;PMS7003;68408;53.952;27.612;2023-12-29T09:41:30;31.9;26.3;19.1
53698;PMS7003;68408;53.952;27.612;2023-12-29T09:46:42;28.7;23.6;16.6
53698;PMS7003;68408;53.952;27.612;2023-12-29T09:52:00;28.8;24.8;17.9
53698;PMS7003;68408;53.952;27.612;2023-12-29T09:57:00;25.2;21.2;15.4
53698;PMS7003;68408;53.952;27.612;2023-12-29T10:02:12;26.3;22.7;15.8
53698;PMS7003;68408;53.952;27.612;2023-12-29T10:06:43;27.1;22.4;15.2
53698;PMS7003;68408;53.952;27.612;2023-12-29T10:11:36;29.1;24.4;16.7
53698;PMS7003;68408;53.952;27.612;2023-12-29T10:17:13;26.8;22.3;15.9
53698;PMS7003;68408;53.952;27.612;2023-12-29T10:22:11;28.3;23.4;16.9
53698;PMS7003;68408;53.952;27.612;2023-12-29T10:27:12;29.5;24.9;18
53698;PMS7003;68408;53.952;27.612;2023-12-29T10:32:12;30.9;24.3;17.8
53698;PMS7003;68408;53.952;27.612;2023-12-29T10:36:40;30.6;24.9;17.8
53698;PMS7003;68408;53.952;27.612;2023-12-29T10:41:30;27.2;22.9;16.5
53698;PMS7003;68408;53.952;27.612;2023-12-29T10:47:11;25;20.5;15.3
53698;PMS7003;68408;53.952;27.612;2023-12-29T10:51:56;25.6;21.7;16.1
53698;PMS7003;68408;53.952;27.612;2023-12-29T10:56:46;25.7;22.3;16.7
53698;PMS7003;68408;53.952;27.612;2023-12-29T12:46:33;23;19.3;14.2
53698;PMS7003;68408;53.952;27.612;2023-12-29T12:52:00;19.1;16;12.3
53698;PMS7003;68408;53.952;27.612;2023-12-29T12:56:36;17.2;14;10.7
53698;PMS7003;68408;53.952;27.612;2023-12-29T13:02:12;18.2;14;10.3
53698;PMS7003;68408;53.952;27.612;2023-12-29T13:06:50;15.7;12.7;9.7
53698;PMS7003;68408;53.952;27.612;2023-12-29T13:11:38;16.3;13.3;9.7
53698;PMS7003;68408;53.952;27.612;2023-12-29T13:16:30;17.4;13.6;9.8
53698;PMS7003;68408;53.952;27.612;2023-12-29T13:22:00;17.9;14.8;11.2
53698;PMS7003;68408;53.952;27.612;2023-12-29T13:26:30;17.1;15;11
53698;PMS7003;68408;53.952;27.612;2023-12-29T13:31:40;20;15.9;11.6
53698;PMS7003;68408;53.952;27.612;2023-12-29T13:37:14;19;15.2;11.6
53698;PMS7003;68408;53.952;27.612;2023-12-29T13:41:48;19.8;16.8;12.4
53698;PMS7003;68408;53.952;27.612;2023-12-29T13:46:30;20.9;16.5;12.9
53698;PMS7003;68408;53.952;27.612;2023-12-29T13:51:30;21.7;18;13
53698;PMS7003;68408;53.952;27.612;2023-12-29T13:56:30;22.8;19.8;14
53698;PMS7003;68408;53.952;27.612;2023-12-29T14:01:34;23.2;18.9;13.8
53698;PMS7003;68408;53.952;27.612;2023-12-29T14:06:30;23.9;20.5;15.1
53698;PMS7003;68408;53.952;27.612;2023-12-29T14:12:02;24.2;20.2;14.9
53698;PMS7003;68408;53.952;27.612;2023-12-29T14:16:52;22.9;19.2;14.4
53698;PMS7003;68408;53.952;27.612;2023-12-29T14:21:58;21.4;18.2;13.4
53698;PMS7003;68408;53.952;27.612;2023-12-29T14:26:55;19.3;16.7;13.1
53698;PMS7003;68408;53.952;27.612;2023-12-29T14:31:42;24.2;21.2;15.6
53698;PMS7003;68408;53.952;27.612;2023-12-29T14:36:36;22.6;19.3;13.7
53698;PMS7003;68408;53.952;27.612;2023-12-29T14:42:10;23;18.8;13.9
53698;PMS7003;68408;53.952;27.612;2023-12-29T14:46:56;23.9;20.1;15
53698;PMS7003;68408;53.952;27.612;2023-12-29T14:51:32;23.4;19.4;14.5
53698;PMS7003;68408;53.952;27.612;2023-12-29T14:57:12;20.1;15.6;11
53698;PMS7003;68408;53.952;27.612;2023-12-29T15:02:04;22.1;18.4;13.7
53698;PMS7003;68408;53.952;27.612;2023-12-29T15:06:50;22.8;17.8;13.1
53698;PMS7003;68408;53.952;27.612;2023-12-29T15:12:12;22.5;19.8;15.1
53698;PMS7003;68408;53.952;27.612;2023-12-29T15:17:06;23.2;19.1;14.5
53698;PMS7003;68408;53.952;27.612;2023-12-29T15:22:12;26.5;20.9;16
53698;PMS7003;68408;53.952;27.612;2023-12-29T15:27:04;21.6;18.1;12.9
53698;PMS7003;68408;53.952;27.612;2023-12-29T15:32:14;25.3;19.5;14.4
53698;PMS7003;68408;53.952;27.612;2023-12-29T15:36:52;17.4;14.5;10.7
53698;PMS7003;68408;53.952;27.612;2023-12-29T15:41:31;21.9;17.5;13.2
53698;PMS7003;68408;53.952;27.612;2023-12-29T15:46:42;24.5;19.9;14.4
53698;PMS7003;68408;53.952;27.612;2023-12-29T15:52:12;21.4;17.1;12
53698;PMS7003;68408;53.952;27.612;2023-12-29T15:56:52;24.2;19.9;14
53698;PMS7003;68408;53.952;27.612;2023-12-29T16:02:04;19.6;17;12.1
53698;PMS7003;68408;53.952;27.612;2023-12-29T16:06:50;18.6;15.1;11.6
53698;PMS7003;68408;53.952;27.612;2023-12-29T16:11:44;21.1;18.1;13
53698;PMS7003;68408;53.952;27.612;2023-12-29T16:17:12;22.3;18.5;13.8
53698;PMS7003;68408;53.952;27.612;2023-12-29T16:22:08;22.6;18.8;13.9
53698;PMS7003;68408;53.952;27.612;2023-12-29T16:26:30;25.8;19.7;14.2
53698;PMS7003;68408;53.952;27.612;2023-12-29T16:32:00;20.7;17.9;14
53698;PMS7003;68408;53.952;27.612;2023-12-29T16:37:14;22.1;16.6;11.3
53698;PMS7003;68408;53.952;27.612;2023-12-29T16:41:30;19.9;17.6;13.1
53698;PMS7003;68408;53.952;27.612;2023-12-29T16:46:42;22;18.3;13.4
53698;PMS7003;68408;53.952;27.612;2023-12-29T16:51:46;20.4;17;12
53698;PMS7003;68408;53.952;27.612;2023-12-29T16:56:30;19.3;16.5;12.1
53698;PMS7003;68408;53.952;27.612;2023-12-29T17:02:00;20.6;15.9;11
53698;PMS7003;68408;53.952;27.612;2023-12-29T17:06:30;19.6;17;12.4
53698;PMS7003;68408;53.952;27.612;2023-12-29T17:11:32;20.3;16.5;12.5
53698;PMS7003;68408;53.952;27.612;2023-12-29T17:16:38;19.7;15.6;11.4
53698;PMS7003;68408;53.952;27.612;2023-12-29T17:21:58;19.2;14.9;11.8
53698;PMS7003;68408;53.952;27.612;2023-12-29T17:27:10;17.6;14.9;11.5
53698;PMS7003;68408;53.952;27.612;2023-12-29T17:31:32;16.6;12.9;9.4
53698;PMS7003;68408;53.952;27.612;2023-12-29T17:36:46;19;14.8;10.7
53698;PMS7003;68408;53.952;27.612;2023-12-29T17:41:36;14;12.8;10
53698;PMS7003;68408;53.952;27.612;2023-12-29T17:46:58;16.6;13.6;10.4
53698;PMS7003;68408;53.952;27.612;2023-12-29T17:51:42;17.8;14.2;10.9
53698;PMS7003;68408;53.952;27.612;2023-12-29T17:56:38;15.5;14;11.1
53698;PMS7003;68408;53.952;27.612;2023-12-29T18:02:02;19.7;15.5;12
53698;PMS7003;68408;53.952;27.612;2023-12-29T18:06:32;16.1;13.8;10.6
53698;PMS7003;68408;53.952;27.612;2023-12-29T18:12:00;15.8;13.1;10
53698;PMS7003;68408;53.952;27.612;2023-12-29T18:16:50;15;12.4;9
53698;PMS7003;68408;53.952;27.612;2023-12-29T18:21:38;12.7;11.3;8.5
53698;PMS7003;68408;53.952;27.612;2023-12-29T18:27:00;13.8;10.9;8.7
53698;PMS7003;68408;53.952;27.612;2023-12-29T18:31:48;13.7;11.9;9.1
53698;PMS7003;68408;53.952;27.612;2023-12-29T18:37:00;14.5;11.9;8.9
53698;PMS7003;68408;53.952;27.612;2023-12-29T18:41:32;16.2;12.4;9.2
53698;PMS7003;68408;53.952;27.612;2023-12-29T18:47:00;16.6;14.3;10.8
53698;PMS7003;68408;53.952;27.612;2023-12-29T18:52:04;15.1;12.2;9.6
53698;PMS7003;68408;53.952;27.612;2023-12-29T18:56:30;14.8;12.5;9.5
53698;PMS7003;68408;53.952;27.612;2023-12-29T19:01:36;14.3;11.8;9.2
53698;PMS7003;68408;53.952;27.612;2023-12-29T19:07:14;16.1;12.9;9.6
53698;PMS7003;68408;53.952;27.612;2023-12-29T19:11:36;14.8;11.5;9.1
53698;PMS7003;68408;53.952;27.612;2023-12-29T19:16:40;14.4;12.4;9.5
53698;PMS7003;68408;53.952;27.612;2023-12-29T19:21:52;13;11.2;8.4
53698;PMS7003;68408;53.952;27.612;2023-12-29T19:27:04;15.4;12.6;9.5
53698;PMS7003;68408;53.952;27.612;2023-12-29T19:31:38;15.5;13.1;9.4
53698;PMS7003;68408;53.952;27.612;2023-12-29T19:37:02;13.5;11.6;8.7
53698;PMS7003;68408;53.952;27.612;2023-12-29T19:42:12;16.8;12.8;9.7
53698;PMS7003;68408;53.952;27.612;2023-12-29T19:47:14;14.5;12.8;9.9
53698;PMS7003;68408;53.952;27.612;2023-12-29T19:52:12;13.9;11.5;8.9
53698;PMS7003;68408;53.952;27.612;2023-12-29T19:57:12;14.8;11.3;8.8
53698;PMS7003;68408;53.952;27.612;2023-12-29T20:01:41;15.4;11.9;9.4
53698;PMS7003;68408;53.952;27.612;2023-12-29T20:06:46;13.2;11.9;9.1
53698;PMS7003;68408;53.952;27.612;2023-12-29T20:11:38;13.6;11.5;8.3
53698;PMS7003;68408;53.952;27.612;2023-12-29T20:17:14;15;12.4;9.2
53698;PMS7003;68408;53.952;27.612;2023-12-29T20:22:00;13.2;10.8;8.6
53698;PMS7003;68408;53.952;27.612;2023-12-29T20:27:04;13.9;11.4;8.3
53698;PMS7003;68408;53.952;27.612;2023-12-29T20:31:30;11.9;9.5;7.4
53698;PMS7003;68408;53.952;27.612;2023-12-29T20:36:36;15.4;13.1;9.7
53698;PMS7003;68408;53.952;27.612;2023-12-29T20:42:14;13.2;11.2;8.9
53698;PMS7003;68408;53.952;27.612;2023-12-29T20:46:48;16.7;14.3;10.8
53698;PMS7003;68408;53.952;27.612;2023-12-29T20:52:00;14.8;12.3;9.4
53698;PMS7003;68408;53.952;27.612;2023-12-29T20:56:32;16;12.5;9.8
53698;PMS7003;68408;53.952;27.612;2023-12-29T21:02:14;11.1;10;7.8
53698;PMS7003;68408;53.952;27.612;2023-12-29T21:06:42;10.5;8.1;6.2
53698;PMS7003;68408;53.952;27.612;2023-12-29T21:11:36;11.7;10.4;8.2
53698;PMS7003;68408;53.952;27.612;2023-12-29T21:16:58;10.4;9.4;6.8
53698;PMS7003;68408;53.952;27.612;2023-12-29T21:21:48;13.2;10.5;8.4
53698;PMS7003;68408;53.952;27.612;2023-12-29T21:26:44;13.5;11.5;9.1
53698;PMS7003;68408;53.952;27.612;2023-12-29T21:31:36;11.5;9.9;7.7
53698;PMS7003;68408;53.952;27.612;2023-12-29T21:37:14;11.7;10.2;7.9
53698;PMS7003;68408;53.952;27.612;2023-12-29T21:41:33;11.3;9.5;7.4
53698;PMS7003;68408;53.952;27.612;2023-12-29T21:46:30;12.2;10.3;7.7
53698;PMS7003;68408;53.952;27.612;2023-12-29T21:52:14;13;11;8.5
53698;PMS7003;68408;53.952;27.612;2023-12-29T21:56:32;11.1;9;7.4
53698;PMS7003;68408;53.952;27.612;2023-12-29T22:01:31;11.1;8.9;6.7
53698;PMS7003;68408;53.952;27.612;2023-12-29T22:06:38;11.7;9.7;7.9
53698;PMS7003;68408;53.952;27.612;2023-12-29T22:11:52;12.1;9.1;7.2
53698;PMS7003;68408;53.952;27.612;2023-12-29T22:16:48;11.8;9.5;7.5
53698;PMS7003;68408;53.952;27.612;2023-12-29T22:21:48;12.1;10.3;8.3
53698;PMS7003;68408;53.952;27.612;2023-12-29T22:27:14;10.7;9.5;7.5
53698;PMS7003;68408;53.952;27.612;2023-12-29T22:31:58;12.5;10.5;8.5
53698;PMS7003;68408;53.952;27.612;2023-12-29T22:36:44;12.3;10;7.8
53698;PMS7003;68408;53.952;27.612;2023-12-29T22:41:48;11.6;9.8;7.9
53698;PMS7003;68408;53.952;27.612;2023-12-29T22:46:42;12.7;10.5;8.6
53698;PMS7003;68408;53.952;27.612;2023-12-29T22:51:30;11.5;9.9;8
53698;PMS7003;68408;53.952;27.612;2023-12-29T22:57:04;12.2;9.7;8
53698;PMS7003;68408;53.952;27.612;2023-12-29T23:02:02;13.1;10.9;8.7
53698;PMS7003;68408;53.952;27.612;2023-12-29T23:06:40;12.6;10.6;8.6
53698;PMS7003;68408;53.952;27.612;2023-12-29T23:11:44;11.8;9.2;7.6
53698;PMS7003;68408;53.952;27.612;2023-12-29T23:16:42;11.5;9.6;7.2
53698;PMS7003;68408;53.952;27.612;2023-12-29T23:21:36;12.9;10.2;8.2
53698;PMS7003;68408;53.952;27.612;2023-12-29T23:26:30;12.6;9.8;7.8
53698;PMS7003;68408;53.952;27.612;2023-12-29T23:31:48;13.2;10.2;8.3
53698;PMS7003;68408;53.952;27.612;2023-12-29T23:36:46;12.4;10.6;8.6
53698;PMS7003;68408;53.952;27.612;2023-12-29T23:41:58;15.2;12;8.9
53698;PMS7003;68408;53.952;27.612;2023-12-29T23:47:10;11.1;9.5;7.9
53698;PMS7003;68408;53.952;27.612;2023-12-29T23:51:44;11.8;9.8;8.2
53698;PMS7003;68408;53.952;27.612;2023-12-29T23:56:30;13;10.3;7.8
